Time;durP1;ratioP1;P1;durP2;ratioP2;P2;SDS_P1;SDS_P2;PMS_P1;PMS_P2;Temp;Humidity;BMP_temperature;BMP_pressure;BME280_temperature;BME280_humidity;BME280_pressure;Samples;Min_cycle;Max_cycle;Signal;HPM_P1;HPM_P2
2021/05/06 00:02:03;;;;;;;1.93;1.50;;;7.40;77.40;;;;;;5069214;28;20671;-90
2021/05/06 00:05:04;;;;;;;1.73;1.47;;;7.50;78.00;;;;;;5076486;28;20220;-87
2021/05/06 00:30:14;;;;;;;2.33;1.53;;;7.70;72.60;;;;;;5054868;28;20969;-87
2021/05/06 00:32:43;;;;;;;1.50;1.30;;;7.70;72.60;;;;;;5090043;28;20224;-87
2021/05/06 00:35:13;;;;;;;2.83;1.50;;;7.70;72.60;;;;;;5098321;28;20260;-89
2021/05/06 00:37:47;;;;;;;3.10;1.60;;;7.60;72.40;;;;;;5096588;28;20219;-90
2021/05/06 00:40:17;;;;;;;2.03;1.40;;;7.50;72.30;;;;;;5098518;28;20229;-87
2021/05/06 00:42:51;;;;;;;1.97;1.57;;;7.60;72.50;;;;;;5110072;28;20218;-88
2021/05/06 00:45:51;;;;;;;2.13;1.60;;;7.70;72.60;;;;;;5098496;28;20239;-87
2021/05/06 00:56:52;;;;;;;2.60;1.50;;;7.80;72.60;;;;;;5084193;28;20196;-88
2021/05/06 00:59:31;;;;;;;2.27;1.40;;;7.90;72.70;;;;;;5098237;28;20231;-90
2021/05/06 01:02:29;;;;;;;1.40;1.30;;;7.80;72.60;;;;;;5097561;28;20259;-90
2021/05/06 01:04:58;;;;;;;3.23;1.70;;;7.70;72.70;;;;;;5087014;28;20233;-90
2021/05/06 01:07:46;;;;;;;2.70;1.30;;;7.70;72.60;;;;;;5104330;28;20200;-89
2021/05/06 01:10:24;;;;;;;3.23;1.80;;;7.60;75.20;;;;;;5095680;28;20228;-90
2021/05/06 01:12:51;;;;;;;1.57;1.30;;;7.60;72.40;;;;;;5084338;28;20197;-88
2021/05/06 01:15:17;;;;;;;2.17;1.67;;;7.50;73.70;;;;;;5096727;27;20221;-89
2021/05/06 01:17:43;;;;;;;4.00;1.50;;;7.60;75.50;;;;;;5092952;28;20574;-87
2021/05/06 01:20:11;;;;;;;1.90;1.20;;;7.60;73.90;;;;;;5095568;27;20233;-89
2021/05/06 01:22:39;;;;;;;1.70;1.40;;;7.60;75.50;;;;;;5101867;28;20218;-88
2021/05/06 01:25:06;;;;;;;2.70;1.67;;;7.70;74.50;;;;;;5092057;28;20710;-91
2021/05/06 01:27:38;;;;;;;3.63;1.70;;;7.50;75.40;;;;;;5103060;28;20199;-88
2021/05/06 01:30:13;;;;;;;2.90;1.47;;;7.40;75.50;;;;;;5096419;28;20311;-89
2021/05/06 01:32:42;;;;;;;3.10;1.70;;;7.50;76.30;;;;;;5097464;28;20199;-91
2021/05/06 01:35:13;;;;;;;2.33;1.97;;;7.60;76.20;;;;;;5088194;28;20609;-89
2021/05/06 01:37:48;;;;;;;2.83;1.50;;;7.70;72.60;;;;;;5094843;28;20481;-91
2021/05/06 01:40:33;;;;;;;2.60;1.80;;;7.70;74.60;;;;;;5094120;28;20220;-88
2021/05/06 01:43:02;;;;;;;2.83;1.60;;;7.70;72.60;;;;;;5092764;28;20299;-88
2021/05/06 01:48:44;;;;;;;3.77;1.90;;;7.50;72.30;;;;;;5051603;28;20244;-87
2021/05/06 01:59:36;;;;;;;3.03;1.40;;;7.70;72.60;;;;;;5096978;28;20648;-88
2021/05/06 02:02:03;;;;;;;3.37;1.63;;;7.70;71.60;;;;;;5097776;28;20212;-90
2021/05/06 02:04:30;;;;;;;2.67;1.50;;;7.70;72.60;;;;;;5101595;28;20228;-88
2021/05/06 02:06:56;;;;;;;2.67;1.40;;;7.70;72.60;;;;;;5094490;28;20197;-88
2021/05/06 02:09:24;;;;;;;2.33;1.30;;;7.60;73.80;;;;;;5102491;28;20232;-87
2021/05/06 02:11:50;;;;;;;3.77;1.70;;;7.60;72.40;;;;;;5115838;28;20227;-88
2021/05/06 02:14:16;;;;;;;2.13;1.43;;;7.60;72.40;;;;;;5095666;28;20230;-88
2021/05/06 02:16:43;;;;;;;2.07;1.70;;;7.60;72.50;;;;;;5094367;28;21079;-88
2021/05/06 02:19:10;;;;;;;2.87;1.60;;;7.60;72.40;;;;;;5097511;28;20698;-89
2021/05/06 02:21:36;;;;;;;2.80;1.50;;;7.50;72.30;;;;;;5100121;28;20282;-88
2021/05/06 02:24:03;;;;;;;3.83;1.50;;;7.40;72.30;;;;;;5095785;28;20205;-90
2021/05/06 02:26:30;;;;;;;5.30;1.60;;;7.40;69.60;;;;;;5096037;28;20281;-87
2021/05/06 02:28:57;;;;;;;4.33;1.70;;;7.30;72.10;;;;;;5103119;28;20212;-87
2021/05/06 02:31:26;;;;;;;3.27;1.60;;;7.30;71.50;;;;;;5104139;28;20240;-87
2021/05/06 02:33:53;;;;;;;1.83;1.50;;;7.20;72.00;;;;;;5093345;28;20223;-87
2021/05/06 02:36:19;;;;;;;2.50;1.43;;;7.30;72.10;;;;;;5099698;28;20211;-87
2021/05/06 02:38:46;;;;;;;2.87;1.40;;;7.40;71.80;;;;;;5098265;28;20210;-87
2021/05/06 02:41:13;;;;;;;3.90;1.60;;;7.40;70.90;;;;;;5091627;28;20291;-88
2021/05/06 02:43:40;;;;;;;3.37;1.40;;;7.60;67.10;;;;;;5104458;28;20275;-87
2021/05/06 02:46:07;;;;;;;2.93;1.40;;;7.60;66.90;;;;;;5094839;28;20228;-89
2021/05/06 02:48:33;;;;;;;3.97;1.60;;;7.50;68.30;;;;;;5107730;28;20257;-87
2021/05/06 02:51:01;;;;;;;4.57;1.70;;;7.40;70.10;;;;;;5092070;28;20596;-88
2021/05/06 02:53:31;;;;;;;2.83;1.50;;;7.50;67.20;;;;;;5097546;28;20193;-88
2021/05/06 02:56:07;;;;;;;2.17;1.50;;;7.70;66.60;;;;;;5104738;28;20228;-87
2021/05/06 02:59:02;;;;;;;3.53;1.70;;;7.60;66.80;;;;;;5096477;28;20199;-87
2021/05/06 03:04:13;;;;;;;2.33;1.50;;;7.60;71.60;;;;;;5101521;28;20734;-87
2021/05/06 03:06:47;;;;;;;2.73;1.40;;;7.60;72.40;;;;;;5097936;28;20207;-88
2021/05/06 03:09:26;;;;;;;3.53;1.50;;;7.60;72.40;;;;;;5098793;28;20232;-89
2021/05/06 03:11:58;;;;;;;2.67;1.40;;;7.70;72.60;;;;;;5101373;28;20276;-88
2021/05/06 03:22:53;;;;;;;5.63;1.70;;;7.90;72.70;;;;;;5097846;28;20862;-87
2021/05/06 03:25:21;;;;;;;2.13;1.40;;;7.80;72.60;;;;;;5078404;28;20704;-87
2021/05/06 03:27:49;;;;;;;5.53;1.97;;;7.90;72.70;;;;;;5096438;28;20215;-87
2021/05/06 03:30:38;;;;;;;1.97;1.57;;;7.90;72.70;;;;;;5088026;28;20228;-87
2021/05/06 03:41:42;;;;;;;4.17;1.90;;;7.70;72.60;;;;;;5100218;28;20224;-88
2021/05/06 03:50:00;;;;;;;5.67;1.70;;;7.60;76.10;;;;;;5031167;28;20626;-86
2021/05/06 04:03:43;;;;;;;6.17;2.03;;;7.60;78.30;;;;;;5083070;28;20205;-86
2021/05/06 04:17:16;;;;;;;2.67;1.63;;;7.70;78.60;;;;;;5099390;28;20212;-86
2021/05/06 04:28:08;;;;;;;4.10;1.83;;;8.00;76.10;;;;;;5099195;28;20582;-88
2021/05/06 04:36:09;;;;;;;5.30;1.60;;;8.40;73.50;;;;;;5098405;28;20239;-86
2021/05/06 04:38:37;;;;;;;3.77;1.70;;;8.30;76.40;;;;;;5102440;28;20651;-86
2021/05/06 04:41:31;;;;;;;2.17;1.65;;;8.20;77.00;;;;;;5101204;28;20285;-86
2021/05/06 04:55:32;;;;;;;5.10;1.80;;;8.50;73.40;;;;;;5102886;27;20243;-86
2021/05/06 04:58:27;;;;;;;5.77;1.90;;;8.40;73.30;;;;;;5103474;28;20261;-86
2021/05/06 05:03:39;;;;;;;6.45;2.20;;;8.60;74.40;;;;;;5068816;28;20256;-88
2021/05/06 05:06:06;;;;;;;3.20;1.60;;;8.70;73.60;;;;;;5099806;28;20224;-88
2021/05/06 05:08:38;;;;;;;6.00;2.10;;;8.90;73.80;;;;;;5101488;28;20284;-87
2021/05/06 05:11:23;;;;;;;2.77;1.30;;;8.90;73.00;;;;;;5100677;28;20242;-86
2021/05/06 05:13:57;;;;;;;3.53;1.63;;;8.90;71.70;;;;;;5092363;28;20208;-86
2021/05/06 05:19:35;;;;;;;3.60;1.90;;;8.80;71.40;;;;;;5101728;28;20199;-86
2021/05/06 05:24:52;;;;;;;5.53;1.90;;;9.00;70.30;;;;;;5099774;28;20315;-86
2021/05/06 05:27:23;;;;;;;3.38;2.03;;;9.10;70.10;;;;;;5098933;28;20254;-86
2021/05/06 05:29:49;;;;;;;4.22;1.80;;;9.10;70.40;;;;;;5096645;28;20231;-87
2021/05/06 05:32:16;;;;;;;5.38;1.90;;;9.10;68.10;;;;;;5090860;28;20221;-86
2021/05/06 05:34:44;;;;;;;3.85;1.77;;;9.10;68.30;;;;;;5092666;28;20307;-87
2021/05/06 05:37:16;;;;;;;6.30;2.08;;;9.10;70.30;;;;;;5101644;28;20236;-86
2021/05/06 05:39:54;;;;;;;4.68;1.73;;;9.20;67.50;;;;;;5095694;28;20240;-86
2021/05/06 05:42:28;;;;;;;4.78;1.60;;;9.40;66.10;;;;;;5081941;28;20193;-85
2021/05/06 05:56:21;;;;;;;6.03;1.90;;;9.60;62.90;;;;;;5094929;28;20250;-88
2021/05/06 05:58:49;;;;;;;5.10;1.60;;;9.60;60.60;;;;;;5096606;28;20206;-91
2021/05/06 06:01:16;;;;;;;5.22;2.08;;;9.70;58.90;;;;;;5086059;28;20710;-90
2021/05/06 06:03:42;;;;;;;7.03;1.95;;;9.80;58.60;;;;;;5085684;28;20675;-90
2021/05/06 06:06:08;;;;;;;7.38;1.92;;;10.10;56.70;;;;;;5093455;28;20232;-89
2021/05/06 06:08:36;;;;;;;6.72;1.55;;;10.20;55.60;;;;;;5099581;28;20636;-92
2021/05/06 06:11:03;;;;;;;4.22;1.67;;;10.30;53.80;;;;;;5096353;28;20249;-89
2021/05/06 06:13:30;;;;;;;3.92;1.73;;;10.30;54.20;;;;;;5091152;28;20199;-91
2021/05/06 06:16:01;;;;;;;5.07;1.92;;;10.30;54.70;;;;;;5087608;28;20720;-91
2021/05/06 06:18:34;;;;;;;6.68;2.10;;;10.40;54.40;;;;;;5096326;28;20257;-91
2021/05/06 06:21:03;;;;;;;8.02;2.03;;;10.40;52.30;;;;;;5097582;28;20787;-92
2021/05/06 06:23:29;;;;;;;6.95;1.80;;;10.70;51.20;;;;;;5105955;28;20276;-92
2021/05/06 06:26:03;;;;;;;10.65;2.28;;;10.80;48.70;;;;;;5098383;28;20224;-92
2021/05/06 06:28:47;;;;;;;7.53;1.70;;;10.70;47.70;;;;;;5100733;28;20225;-92
2021/05/06 06:34:18;;;;;;;4.63;1.58;;;10.60;47.40;;;;;;5074150;28;20685;-93
2021/05/06 06:36:46;;;;;;;4.63;2.03;;;10.60;47.40;;;;;;5102825;28;20204;-93
2021/05/06 06:39:31;;;;;;;9.45;2.08;;;10.40;47.20;;;;;;5095015;28;20641;-93
2021/05/06 06:41:58;;;;;;;5.82;1.88;;;10.60;47.40;;;;;;5096566;28;20200;-93
2021/05/06 07:00:51;;;;;;;5.57;1.75;;;12.30;39.70;;;;;;5106301;28;20193;-89
2021/05/06 07:03:20;;;;;;;8.05;3.60;;;12.00;40.00;;;;;;5108503;28;20233;-91
2021/05/06 07:09:34;;;;;;;8.25;2.25;;;12.50;37.70;;;;;;5127351;27;20704;-92
2021/05/06 07:12:01;;;;;;;5.35;1.92;;;12.50;39.40;;;;;;5116372;28;20275;-88
2021/05/06 07:21:24;;;;;;;5.60;2.20;;;12.60;38.80;;;;;;5103316;28;20213;-89
2021/05/06 07:23:53;;;;;;;5.95;1.85;;;12.90;37.60;;;;;;5089026;28;20199;-89
2021/05/06 07:30:08;;;;;;;4.85;1.70;;;13.20;35.70;;;;;;5339889;22;20236;-90
2021/05/06 07:39:28;;;;;;;8.57;1.70;;;13.30;36.10;;;;;;5028320;28;20291;-89
2021/05/06 07:42:01;;;;;;;2.42;1.52;;;13.50;36.50;;;;;;5019441;28;20195;-89
2021/05/06 07:44:31;;;;;;;8.48;2.00;;;14.00;33.40;;;;;;5077917;28;20239;-89
2021/05/06 07:47:10;;;;;;;5.20;1.88;;;14.20;33.60;;;;;;5107583;28;20666;-88
2021/05/06 07:49:46;;;;;;;3.63;1.50;;;14.50;32.10;;;;;;5100932;28;20220;-90
2021/05/06 07:52:16;;;;;;;4.68;1.70;;;14.30;32.30;;;;;;5097574;28;20216;-93
2021/05/06 07:54:43;;;;;;;8.30;2.13;;;14.40;33.60;;;;;;5085510;28;20602;-90
2021/05/06 07:57:09;;;;;;;4.28;2.00;;;14.40;35.90;;;;;;5082908;28;20254;-93
2021/05/06 07:59:36;;;;;;;7.82;1.80;;;14.20;33.50;;;;;;5098254;28;20216;-92
2021/05/06 08:02:11;;;;;;;3.38;1.63;;;14.40;33.10;;;;;;5104924;28;20276;-91
2021/05/06 08:08:01;;;;;;;7.25;1.83;;;14.20;32.30;;;;;;5102703;28;20201;-89
2021/05/06 08:10:30;;;;;;;6.70;1.90;;;14.30;33.00;;;;;;5086775;28;20288;-89
2021/05/06 08:12:58;;;;;;;7.75;1.80;;;14.10;33.10;;;;;;5081726;28;20200;-91
2021/05/06 08:15:25;;;;;;;4.30;1.90;;;14.00;34.10;;;;;;5097148;28;20640;-93
2021/05/06 08:17:53;;;;;;;7.53;2.38;;;14.10;34.20;;;;;;5084363;28;20220;-93
2021/05/06 08:20:20;;;;;;;4.75;1.60;;;14.60;32.30;;;;;;5093778;28;20248;-89
2021/05/06 08:22:47;;;;;;;6.18;1.92;;;15.00;34.10;;;;;;5100410;28;20261;-89
2021/05/06 08:25:15;;;;;;;3.67;1.85;;;15.50;32.40;;;;;;5099488;28;20235;-90
2021/05/06 08:30:49;;;;;;;4.05;1.70;;;15.80;31.00;;;;;;5165912;22;20228;-88
2021/05/06 08:33:17;;;;;;;6.10;1.85;;;15.60;29.90;;;;;;5084286;28;20201;-89
2021/05/06 08:36:29;;;;;;;5.55;1.75;;;15.60;31.60;;;;;;5080160;28;20275;-90
2021/05/06 08:38:57;;;;;;;3.47;1.98;;;15.60;31.60;;;;;;5086356;28;20193;-90
2021/05/06 08:42:13;;;;;;;5.70;1.60;;;16.00;28.70;;;;;;5088335;28;20197;-88
2021/05/06 08:44:41;;;;;;;3.92;1.63;;;16.10;28.80;;;;;;5072679;28;20229;-89
2021/05/06 08:47:12;;;;;;;6.28;1.88;;;15.90;28.60;;;;;;5076205;28;20204;-90
2021/05/06 08:49:40;;;;;;;5.28;2.10;;;16.20;28.90;;;;;;5076745;28;20296;-91
2021/05/06 08:52:08;;;;;;;4.47;1.90;;;16.90;28.70;;;;;;5082671;28;20641;-91
2021/05/06 08:54:35;;;;;;;6.28;2.03;;;17.70;26.20;;;;;;5084203;28;20225;-90
2021/05/06 08:57:02;;;;;;;4.13;1.90;;;18.50;25.20;;;;;;5079263;28;20201;-89
2021/05/06 08:59:29;;;;;;;5.90;2.20;;;19.20;25.50;;;;;;5073353;28;20234;-91
2021/05/06 09:01:57;;;;;;;5.05;1.83;;;19.00;24.30;;;;;;5052534;28;20214;-90
2021/05/06 09:04:25;;;;;;;3.28;1.70;;;19.20;24.10;;;;;;5073316;28;20228;-89
2021/05/06 09:06:54;;;;;;;5.70;1.83;;;18.90;24.00;;;;;;5060321;28;20203;-90
2021/05/06 09:09:20;;;;;;;5.80;2.05;;;18.30;24.80;;;;;;5055761;28;20704;-87
2021/05/06 09:11:53;;;;;;;10.90;2.50;;;18.20;24.70;;;;;;5077622;28;20274;-89
2021/05/06 09:14:33;;;;;;;7.07;2.35;;;17.70;27.60;;;;;;5079095;28;20225;-87
2021/05/06 09:17:00;;;;;;;3.90;1.98;;;17.30;28.30;;;;;;5067590;28;20205;-90
2021/05/06 09:19:26;;;;;;;5.53;1.98;;;17.00;29.60;;;;;;5044720;28;20240;-89
2021/05/06 09:21:57;;;;;;;5.13;1.73;;;17.30;27.70;;;;;;5065406;28;20535;-89
2021/05/06 09:24:26;;;;;;;6.15;1.90;;;17.20;26.70;;;;;;5082724;28;20245;-90
2021/05/06 09:26:55;;;;;;;4.13;1.60;;;17.20;26.10;;;;;;5060479;28;20652;-90
2021/05/06 09:32:19;;;;;;;3.30;1.80;;;17.00;29.60;;;;;;5069757;28;20217;-93
2021/05/06 09:34:47;;;;;;;7.00;1.90;;;16.70;28.30;;;;;;5078205;28;20275;-91
2021/05/06 09:37:38;;;;;;;4.88;1.75;;;16.80;28.90;;;;;;5063228;28;20194;-94
2021/05/06 09:40:23;;;;;;;5.00;1.92;;;16.30;29.00;;;;;;5063873;28;20302;-91
2021/05/06 09:42:52;;;;;;;3.50;1.73;;;15.90;29.60;;;;;;5074583;28;20209;-91
2021/05/06 09:45:21;;;;;;;7.15;2.15;;;15.80;28.50;;;;;;5072493;28;20228;-89
2021/05/06 09:48:08;;;;;;;10.80;2.40;;;16.00;30.80;;;;;;5073378;28;20307;-89
2021/05/06 09:50:35;;;;;;;4.50;2.22;;;16.00;30.30;;;;;;5066328;28;20232;-90
2021/05/06 09:53:04;;;;;;;8.45;1.80;;;15.80;29.10;;;;;;5054623;28;20209;-91
2021/05/06 09:55:34;;;;;;;7.82;2.08;;;15.10;30.10;;;;;;5044700;28;20533;-91
2021/05/06 09:58:19;;;;;;;8.48;2.38;;;15.00;31.10;;;;;;5073853;28;20202;-90
2021/05/06 10:00:47;;;;;;;12.85;2.30;;;15.00;30.60;;;;;;5077565;28;20236;-89
2021/05/06 10:03:33;;;;;;;6.75;1.80;;;14.90;31.60;;;;;;5074476;28;20202;-93
2021/05/06 10:16:53;;;;;;;6.82;1.60;;;14.00;34.20;;;;;;5071265;28;20710;-92
2021/05/06 10:19:20;;;;;;;4.47;1.55;;;14.10;33.00;;;;;;5063213;28;20253;-90
2021/05/06 10:21:47;;;;;;;2.97;1.70;;;13.90;34.90;;;;;;5080938;28;20201;-89
2021/05/06 10:24:17;;;;;;;6.55;1.85;;;13.70;34.90;;;;;;5091698;28;20227;-88
2021/05/06 10:26:45;;;;;;;3.58;1.50;;;13.60;35.40;;;;;;5092604;28;20205;-90
2021/05/06 10:29:58;;;;;;;3.67;1.90;;;13.50;37.30;;;;;;5089018;28;20889;-88
2021/05/06 10:35:20;;;;;;;8.55;1.58;;;13.70;35.70;;;;;;5135509;22;20218;-88
2021/05/06 10:37:53;;;;;;;4.50;1.58;;;13.70;35.60;;;;;;5033582;28;20285;-89
2021/05/06 10:44:39;;;;;;;6.70;1.83;;;13.40;38.00;;;;;;5022686;28;20178;-87
2021/05/06 10:51:20;;;;;;;1.70;1.30;;;13.30;41.00;;;;;;5019459;28;20233;-86
2021/05/06 11:00:26;;;;;;;4.20;1.77;;;12.80;44.50;;;;;;5042740;28;20217;-87
2021/05/06 11:06:36;;;;;;;2.92;1.30;;;12.90;44.30;;;;;;5043132;28;20655;-86
2021/05/06 11:09:03;;;;;;;3.97;1.42;;;13.00;49.50;;;;;;5050709;28;20204;-86
2021/05/06 11:15:36;;;;;;;2.80;1.38;;;12.60;49.20;;;;;;5042452;28;20587;-86
2021/05/06 11:18:55;;;;;;;3.97;1.45;;;12.30;51.20;;;;;;5043543;28;20230;-86
2021/05/06 11:21:40;;;;;;;4.68;1.60;;;12.40;53.80;;;;;;5012310;28;20666;-87
2021/05/06 11:36:35;;;;;;;3.83;1.40;;;12.30;55.10;;;;;;5066352;28;20548;-87
2021/05/06 11:39:01;;;;;;;3.47;1.50;;;12.20;56.70;;;;;;5060337;28;20194;-85
2021/05/06 11:41:30;;;;;;;2.70;1.30;;;12.40;56.70;;;;;;5042029;28;20249;-85
2021/05/06 11:54:27;;;;;;;2.88;1.63;;;13.00;55.30;;;;;;5045800;28;20200;-86
2021/05/06 11:57:13;;;;;;;1.42;1.27;;;12.80;56.50;;;;;;5041890;28;20221;-86
2021/05/06 11:59:46;;;;;;;3.10;1.50;;;12.90;57.50;;;;;;5039036;28;20230;-86
2021/05/06 12:02:13;;;;;;;3.13;1.40;;;12.80;60.60;;;;;;5040552;28;20222;-87
2021/05/06 12:04:53;;;;;;;7.95;1.85;;;12.80;60.70;;;;;;5040602;28;20222;-87
2021/05/06 12:07:22;;;;;;;5.55;1.55;;;12.60;61.10;;;;;;5040049;28;20183;-86
2021/05/06 12:09:50;;;;;;;2.40;1.70;;;12.50;63.00;;;;;;5040627;28;20230;-90
2021/05/06 12:15:42;;;;;;;3.20;1.60;;;12.40;59.40;;;;;;5025528;28;20229;-88
2021/05/06 12:18:52;;;;;;;2.92;1.42;;;12.40;61.90;;;;;;5042491;28;20195;-88
2021/05/06 12:21:18;;;;;;;2.35;1.58;;;12.60;58.10;;;;;;5028031;28;20219;-88
2021/05/06 12:27:28;;;;;;;2.75;1.58;;;12.90;60.40;;;;;;5045287;28;20233;-92
2021/05/06 13:12:10;;;;;;;4.93;1.75;;;12.90;60.40;;;;;;5057051;28;20226;-89
2021/05/06 13:14:46;;;;;;;4.05;1.63;;;12.90;60.30;;;;;;5054592;28;20304;-90
2021/05/06 13:17:38;;;;;;;5.00;1.77;;;13.00;57.20;;;;;;5088064;28;20204;-89
2021/05/06 13:20:17;;;;;;;4.55;2.00;;;12.80;60.00;;;;;;5081858;28;20201;-88
2021/05/06 13:23:01;;;;;;;2.75;1.67;;;12.80;60.40;;;;;;5073360;28;20205;-89
2021/05/06 13:25:43;;;;;;;4.85;1.77;;;12.80;60.80;;;;;;5081802;28;20215;-91
2021/05/06 13:28:11;;;;;;;8.57;2.08;;;12.90;58.60;;;;;;5121235;22;20185;-87
2021/05/06 13:30:38;;;;;;;3.70;1.83;;;12.90;57.50;;;;;;5093193;28;20220;-91
2021/05/06 13:33:16;;;;;;;4.53;1.63;;;13.00;57.60;;;;;;5090619;28;20345;-91
2021/05/06 13:39:29;;;;;;;3.67;2.13;;;12.60;58.10;;;;;;5105189;28;20188;-89
2021/05/06 13:41:57;;;;;;;3.60;1.80;;;12.60;59.60;;;;;;5093892;28;20267;-90
2021/05/06 13:44:25;;;;;;;3.65;1.83;;;12.40;62.10;;;;;;5084830;28;20258;-89
2021/05/06 13:46:54;;;;;;;1.77;1.40;;;12.40;60.50;;;;;;5087350;28;20213;-91
2021/05/06 13:49:23;;;;;;;3.38;2.08;;;12.40;61.00;;;;;;5100348;28;20267;-88
2021/05/06 13:51:49;;;;;;;5.10;2.00;;;12.10;62.50;;;;;;5100396;28;20226;-90
2021/05/06 13:54:17;;;;;;;4.05;2.10;;;12.00;66.40;;;;;;5101275;28;20226;-89
2021/05/06 13:56:44;;;;;;;4.05;2.17;;;11.80;71.00;;;;;;5092739;28;20603;-88
2021/05/06 13:59:15;;;;;;;2.65;2.25;;;11.50;68.90;;;;;;5097155;28;20197;-90
2021/05/06 14:01:53;;;;;;;2.83;2.08;;;11.50;70.30;;;;;;5102888;28;20213;-89
2021/05/06 14:04:21;;;;;;;6.15;2.20;;;11.60;69.20;;;;;;5091136;28;20213;-91
2021/05/06 14:07:07;;;;;;;4.97;2.20;;;11.50;73.40;;;;;;5096213;28;20196;-91
2021/05/06 14:09:48;;;;;;;4.00;2.10;;;11.30;75.60;;;;;;5110967;28;20275;-91
2021/05/06 14:14:57;;;;;;;5.13;2.38;;;10.90;79.00;;;;;;5096128;28;20315;-90
2021/05/06 14:17:24;;;;;;;5.13;2.65;;;10.80;79.90;;;;;;5095369;28;20583;-91
2021/05/06 14:19:50;;;;;;;5.85;2.80;;;10.60;80.10;;;;;;5096001;28;20216;-90
2021/05/06 14:22:17;;;;;;;6.15;2.35;;;10.50;83.00;;;;;;5090427;28;20586;-88
2021/05/06 14:24:43;;;;;;;3.28;2.30;;;10.60;83.80;;;;;;5090894;28;20221;-89
2021/05/06 14:27:10;;;;;;;7.10;2.95;;;10.60;80.60;;;;;;5066124;28;20197;-88
2021/05/06 14:29:36;;;;;;;5.20;2.70;;;10.60;82.30;;;;;;5093654;28;20303;-89
2021/05/06 14:32:04;;;;;;;4.20;2.40;;;10.70;82.80;;;;;;5097977;28;20221;-90
2021/05/06 14:34:37;;;;;;;4.10;2.40;;;10.70;82.10;;;;;;5105033;28;20307;-92
2021/05/06 14:37:07;;;;;;;6.13;2.42;;;10.70;82.00;;;;;;5112098;28;20208;-91
2021/05/06 14:49:43;;;;;;;3.42;2.42;;;11.30;82.60;;;;;;5098286;28;20280;-92
2021/05/06 14:52:30;;;;;;;4.38;2.30;;;11.30;82.40;;;;;;5103230;28;20241;-92
2021/05/06 14:57:38;;;;;;;4.95;2.03;;;11.10;85.00;;;;;;5104373;28;20207;-91
2021/05/06 15:00:08;;;;;;;2.53;2.15;;;11.00;85.30;;;;;;5108937;28;20247;-89
2021/05/06 15:02:35;;;;;;;5.47;2.00;;;11.10;85.60;;;;;;5104128;28;20205;-91
2021/05/06 15:07:44;;;;;;;3.90;2.28;;;10.90;87.20;;;;;;5093759;28;20219;-92
2021/05/06 15:10:13;;;;;;;5.85;2.42;;;10.80;90.00;;;;;;5098068;28;20312;-91
2021/05/06 15:12:42;;;;;;;4.60;2.47;;;10.80;90.50;;;;;;5097380;28;20228;-90
2021/05/06 15:15:09;;;;;;;5.03;2.50;;;10.90;90.50;;;;;;5094532;28;20239;-88
2021/05/06 15:18:00;;;;;;;3.33;2.47;;;10.90;90.50;;;;;;5105798;28;20250;-88
2021/05/06 15:20:33;;;;;;;3.95;2.30;;;11.00;90.20;;;;;;5103173;28;20192;-88
2021/05/06 15:23:15;;;;;;;4.40;2.50;;;11.10;90.00;;;;;;5085166;28;20247;-88
2021/05/06 15:25:41;;;;;;;3.75;2.55;;;11.10;90.10;;;;;;5071811;28;20231;-89
2021/05/06 15:28:08;;;;;;;4.35;2.42;;;10.90;90.50;;;;;;5089201;28;20224;-88
2021/05/06 15:30:35;;;;;;;4.88;2.50;;;10.90;90.50;;;;;;5096296;28;20216;-88
2021/05/06 15:33:01;;;;;;;4.22;2.53;;;10.80;90.50;;;;;;5087199;28;20255;-89
2021/05/06 15:35:28;;;;;;;5.40;2.40;;;10.60;90.90;;;;;;5101896;28;20291;-87
2021/05/06 15:37:55;;;;;;;3.90;2.10;;;10.60;90.80;;;;;;5087639;28;20200;-88
2021/05/06 15:40:22;;;;;;;5.05;2.63;;;10.60;90.40;;;;;;5092352;28;20243;-85
2021/05/06 15:42:49;;;;;;;4.28;2.78;;;10.60;90.90;;;;;;5090770;28;20201;-87
2021/05/06 15:45:16;;;;;;;4.97;2.97;;;10.50;91.00;;;;;;5095145;28;20231;-89
2021/05/06 15:47:45;;;;;;;4.57;2.80;;;10.30;91.10;;;;;;5097238;28;20222;-87
2021/05/06 15:50:13;;;;;;;6.32;2.75;;;10.20;92.20;;;;;;5099679;28;20232;-89
2021/05/06 15:52:40;;;;;;;15.38;8.30;;;10.20;92.50;;;;;;5100055;28;20224;-87
2021/05/06 15:55:12;;;;;;;4.68;2.58;;;10.20;92.70;;;;;;5106024;28;20584;-86
2021/05/06 15:57:42;;;;;;;3.00;2.40;;;10.10;92.00;;;;;;5105023;28;20456;-87
2021/05/06 16:00:11;;;;;;;5.50;2.67;;;10.10;91.80;;;;;;5101972;28;20231;-85
2021/05/06 16:03:42;;;;;;;6.10;3.92;;;10.10;92.20;;;;;;5104617;28;20193;-85
2021/05/06 16:26:55;;;;;;;4.68;2.90;;;9.90;95.10;;;;;;5102843;28;20623;-85
2021/05/06 16:29:22;;;;;;;6.90;3.00;;;9.70;95.50;;;;;;5103109;28;20258;-86
2021/05/06 16:35:14;;;;;;;4.65;2.67;;;9.70;96.10;;;;;;5105123;28;20228;-86
2021/05/06 16:44:31;;;;;;;5.07;3.17;;;9.60;96.40;;;;;;5101200;28;20663;-85
2021/05/06 16:51:11;;;;;;;5.85;2.92;;;9.70;95.60;;;;;;5102170;28;20278;-85
2021/05/06 16:53:38;;;;;;;4.90;3.10;;;9.60;96.00;;;;;;5103241;28;20207;-86
2021/05/06 16:56:04;;;;;;;6.65;2.95;;;9.70;96.10;;;;;;5105341;28;20235;-86
2021/05/06 17:02:10;;;;;;;5.15;2.75;;;9.60;96.50;;;;;;5104148;28;20270;-85
2021/05/06 17:04:36;;;;;;;4.68;3.08;;;9.70;96.40;;;;;;5101438;28;20204;-85
2021/05/06 17:07:05;;;;;;;7.15;3.00;;;9.70;96.20;;;;;;5104962;28;20195;-85
2021/05/06 17:16:52;;;;;;;4.78;3.17;;;9.70;96.10;;;;;;5101340;28;20196;-84
2021/05/06 17:19:19;;;;;;;4.18;3.25;;;9.70;96.30;;;;;;5102976;28;20193;-86
2021/05/06 17:21:45;;;;;;;6.15;3.22;;;9.70;96.00;;;;;;5103858;28;20184;-86
2021/05/06 17:36:09;;;;;;;6.40;3.00;;;9.30;97.40;;;;;;5028577;28;20203;-86
2021/05/06 17:53:01;;;;;;;3.28;2.80;;;9.30;97.80;;;;;;5023075;28;20586;-86
2021/05/06 17:55:30;;;;;;;4.95;2.95;;;9.30;97.20;;;;;;5028105;28;20610;-90
2021/05/06 18:08:32;;;;;;;4.38;3.17;;;9.10;98.50;;;;;;5022713;28;20174;-88
2021/05/06 18:11:18;;;;;;;4.93;3.53;;;9.10;98.70;;;;;;5004529;28;20314;-90
2021/05/06 18:14:12;;;;;;;4.68;4.00;;;9.20;98.50;;;;;;5015174;28;20203;-90
2021/05/06 18:16:38;;;;;;;6.57;3.97;;;9.20;98.60;;;;;;5016728;28;20294;-91
2021/05/06 18:19:06;;;;;;;7.25;4.60;;;9.30;98.90;;;;;;5022565;28;20199;-93
2021/05/06 18:22:43;;;;;;;7.40;4.28;;;9.20;98.60;;;;;;4998086;28;20200;-91
2021/05/06 18:39:13;;;;;;;4.47;2.67;;;9.00;99.30;;;;;;5058730;28;20161;-93
2021/05/06 18:45:55;;;;;;;3.33;2.87;;;8.90;99.90;;;;;;5058272;28;20228;-93
2021/05/06 18:48:56;;;;;;;3.70;2.93;;;8.90;99.90;;;;;;5085469;28;20193;-92
2021/05/06 18:55:44;;;;;;;6.50;3.53;;;8.70;99.70;;;;;;5096173;28;20224;-93
2021/05/06 18:58:56;;;;;;;4.90;3.30;;;8.70;99.90;;;;;;5097422;28;20287;-92
2021/05/06 19:01:27;;;;;;;4.67;3.50;;;8.70;99.90;;;;;;5090440;28;20231;-93
2021/05/06 19:03:57;;;;;;;4.80;3.13;;;8.70;99.90;;;;;;5085761;28;20209;-86
2021/05/06 19:06:42;;;;;;;4.27;3.07;;;8.70;99.90;;;;;;5054045;28;20689;-89
2021/05/06 19:12:41;;;;;;;5.10;3.77;;;8.70;99.90;;;;;;5063521;28;20201;-89
2021/05/06 19:15:08;;;;;;;5.63;3.60;;;8.60;99.90;;;;;;5060691;28;20477;-89
2021/05/06 19:17:40;;;;;;;6.00;4.10;;;8.60;99.90;;;;;;5072738;28;20198;-89
2021/05/06 19:20:56;;;;;;;6.67;3.70;;;8.60;99.90;;;;;;5084923;28;20193;-89
2021/05/06 19:23:41;;;;;;;3.90;3.23;;;8.70;99.90;;;;;;5073794;28;20238;-89
2021/05/06 19:26:10;;;;;;;8.40;4.37;;;8.60;99.90;;;;;;5071911;28;20225;-91
2021/05/06 19:28:37;;;;;;;5.93;3.73;;;8.50;99.90;;;;;;5074173;28;20223;-87
2021/05/06 19:31:04;;;;;;;6.83;3.63;;;8.30;99.90;;;;;;5063699;28;20626;-84
2021/05/06 19:33:31;;;;;;;5.87;4.00;;;8.40;99.90;;;;;;5063765;28;20242;-84
2021/05/06 19:46:48;;;;;;;5.43;4.17;;;8.10;99.90;;;;;;5061955;28;20229;-84
2021/05/06 19:49:16;;;;;;;6.43;4.40;;;8.10;99.90;;;;;;5069060;28;20220;-86
2021/05/06 19:52:28;;;;;;;8.90;4.43;;;8.00;99.90;;;;;;5074974;28;20218;-87
2021/05/06 19:54:54;;;;;;;5.67;4.20;;;7.90;99.90;;;;;;5068169;28;20301;-87
2021/05/06 19:57:27;;;;;;;7.07;4.93;;;7.90;99.90;;;;;;5057908;28;20213;-88
2021/05/06 19:59:54;;;;;;;5.97;4.60;;;8.00;99.90;;;;;;5063049;28;20564;-87
2021/05/06 20:02:20;;;;;;;4.80;4.27;;;8.10;99.90;;;;;;5073079;28;20202;-87
2021/05/06 20:04:48;;;;;;;8.23;4.07;;;8.10;99.90;;;;;;5075778;28;20284;-86
2021/05/06 20:07:14;;;;;;;5.67;4.00;;;8.10;99.90;;;;;;5058261;28;20203;-87
2021/05/06 20:09:46;;;;;;;5.77;4.57;;;8.20;99.90;;;;;;5070888;28;20226;-88
2021/05/06 20:12:14;;;;;;;5.43;3.73;;;8.20;99.90;;;;;;5057685;28;20218;-87
2021/05/06 20:14:41;;;;;;;5.00;3.80;;;8.20;99.90;;;;;;5061965;28;20228;-87
2021/05/06 20:17:13;;;;;;;5.53;4.30;;;8.20;99.90;;;;;;5083067;28;20197;-86
2021/05/06 20:19:42;;;;;;;4.10;3.60;;;8.30;99.90;;;;;;5082970;28;20232;-87
2021/05/06 20:22:10;;;;;;;5.80;3.50;;;8.30;99.90;;;;;;5082941;28;20197;-86
2021/05/06 21:09:30;;;;;;;3.47;2.13;;;8.80;99.90;;;;;;5788566;22;20296;-88
2021/05/06 21:48:53;;;;;;;1.00;0.67;;;9.30;98.10;;;;;;5043428;28;20269;-87
2021/05/06 21:51:20;;;;;;;0.87;0.60;;;9.30;98.40;;;;;;5041953;28;20289;-88
2021/05/06 21:53:46;;;;;;;0.70;0.60;;;9.20;96.90;;;;;;5042197;28;20191;-87
